createdAt,value
2017-04-19T00:00:47.504Z,75.10
2017-04-19T00:01:46.431Z,75.80
2017-04-19T00:02:44.615Z,75.60
2017-04-19T00:04:41.715Z,76.10
2017-04-19T00:05:39.903Z,75.80
2017-04-19T00:06:38.115Z,75.60
2017-04-19T00:07:36.300Z,76.00
2017-04-19T00:08:34.594Z,76.60
2017-04-19T00:09:32.861Z,75.80
2017-04-19T00:10:31.074Z,76.40
2017-04-19T00:11:29.260Z,76.80
2017-04-19T00:12:27.479Z,77.30
2017-04-19T00:13:25.676Z,76.90
2017-04-19T00:14:23.891Z,76.80
2017-04-19T00:15:22.340Z,76.60
2017-04-19T00:16:20.532Z,77.30
2017-04-19T00:17:18.720Z,77.30
2017-04-19T00:18:17.202Z,76.90
2017-04-19T00:19:15.392Z,76.70
2017-04-19T00:20:13.575Z,76.50
2017-04-19T00:21:11.764Z,77.00
2017-04-19T00:22:09.956Z,77.40
2017-04-19T00:23:08.139Z,77.10
2017-04-19T00:24:07.101Z,77.00
2017-04-19T00:25:05.551Z,78.30
2017-04-19T00:26:03.739Z,78.20
2017-04-19T00:27:02.196Z,77.60
2017-04-19T00:28:00.390Z,77.70
2017-04-19T00:28:58.574Z,78.00
2017-04-19T00:29:56.796Z,77.80
2017-04-19T00:30:54.982Z,77.70
2017-04-19T00:31:53.431Z,78.20
2017-04-19T00:32:51.685Z,78.20
2017-04-19T00:33:49.883Z,78.30
2017-04-19T00:34:48.064Z,78.20
2017-04-19T00:35:46.556Z,78.20
2017-04-19T00:36:44.751Z,78.50
2017-04-19T00:37:42.955Z,79.30
2017-04-19T00:38:41.183Z,78.60
2017-04-19T00:39:39.426Z,78.90
2017-04-19T00:40:37.892Z,78.90
2017-04-19T00:41:36.124Z,79.00
2017-04-19T00:42:35.175Z,79.20
2017-04-19T00:43:33.379Z,79.00
2017-04-19T00:44:32.399Z,79.10
2017-04-19T00:45:30.617Z,78.90
2017-04-19T00:46:28.894Z,79.40
2017-04-19T00:47:27.872Z,79.30
2017-04-19T00:48:26.835Z,79.80
2017-04-19T00:49:25.056Z,80.10
2017-04-19T00:50:23.272Z,79.50
2017-04-19T00:51:21.714Z,79.80
2017-04-19T00:52:19.944Z,79.50
2017-04-19T00:53:18.185Z,79.30
2017-04-19T00:54:16.396Z,79.30
2017-04-19T00:55:14.660Z,79.50
2017-04-19T00:56:12.858Z,79.70
2017-04-19T00:57:11.335Z,80.20
2017-04-19T00:58:09.544Z,80.10
2017-04-19T00:59:07.781Z,80.30
2017-04-19T01:00:06.741Z,79.80
2017-04-19T01:01:05.229Z,79.60
2017-04-19T01:02:03.458Z,79.60
2017-04-19T01:03:02.412Z,80.00
2017-04-19T01:04:00.611Z,79.90
2017-04-19T01:04:58.892Z,80.30
2017-04-19T01:05:57.098Z,80.10
2017-04-19T01:06:55.303Z,79.40
2017-04-19T01:07:53.507Z,79.80
2017-04-19T01:08:51.721Z,79.90
2017-04-19T01:09:49.916Z,80.50
2017-04-19T01:10:48.160Z,80.50
2017-04-19T01:11:46.376Z,80.20
2017-04-19T01:12:45.314Z,80.60
2017-04-19T01:13:43.528Z,80.90
2017-04-19T01:14:42.551Z,80.50
2017-04-19T01:15:40.750Z,80.60
2017-04-19T01:16:39.982Z,80.90
2017-04-19T01:17:38.186Z,81.50
2017-04-19T01:18:36.383Z,81.60
2017-04-19T01:19:34.594Z,81.90
2017-04-19T01:20:32.814Z,81.20
2017-04-19T01:21:31.255Z,80.90
2017-04-19T01:22:29.497Z,81.30
2017-04-19T01:23:27.714Z,80.60
2017-04-19T01:24:26.163Z,81.30
2017-04-19T01:25:24.731Z,81.00
2017-04-19T01:26:22.935Z,81.30
2017-04-19T01:27:21.893Z,81.60
2017-04-19T01:28:20.226Z,81.60
2017-04-19T01:29:18.439Z,81.80
2017-04-19T01:30:16.652Z,81.90
2017-04-19T01:31:14.896Z,81.80
2017-04-19T01:32:13.188Z,82.10
2017-04-19T01:33:11.492Z,82.70
2017-04-19T01:34:09.741Z,81.50
2017-04-19T01:35:07.957Z,82.20
2017-04-19T01:36:06.911Z,82.60
2017-04-19T01:37:05.135Z,82.30
2017-04-19T01:38:03.677Z,82.50
2017-04-19T01:39:02.150Z,82.40
2017-04-19T01:40:00.375Z,83.30
2017-04-19T01:40:58.570Z,82.90
2017-04-19T01:41:57.495Z,83.40
2017-04-19T01:42:55.684Z,83.10
2017-04-19T01:43:54.632Z,83.60
2017-04-19T01:44:52.820Z,83.80
2017-04-19T01:45:51.055Z,83.70
2017-04-19T01:46:49.263Z,83.70
2017-04-19T01:47:47.980Z,84.30
2017-04-19T01:48:46.507Z,83.90
2017-04-19T01:49:44.812Z,84.50
2017-04-19T01:50:42.995Z,84.70
2017-04-19T01:51:41.231Z,84.40
2017-04-19T01:52:39.416Z,84.60
2017-04-19T01:53:38.124Z,84.00
2017-04-19T01:54:36.528Z,84.20
2017-04-19T01:55:34.727Z,84.10
2017-04-19T01:56:32.923Z,84.20
2017-04-19T01:57:31.126Z,84.20
2017-04-19T01:58:29.321Z,84.40
2017-04-19T01:59:28.243Z,84.50
2017-04-19T02:00:27.039Z,84.80
2017-04-19T02:01:25.256Z,84.80
2017-04-19T02:02:23.441Z,85.30
2017-04-19T02:03:21.709Z,84.80
2017-04-19T02:04:19.900Z,85.00
2017-04-19T02:05:19.685Z,85.40
2017-04-19T02:06:23.480Z,85.50
2017-04-19T02:07:27.543Z,86.40
2017-04-19T02:08:25.759Z,85.50
2017-04-19T02:09:23.955Z,85.70
2017-04-19T02:10:22.134Z,85.60
2017-04-19T02:11:21.098Z,85.80
2017-04-19T02:12:19.415Z,86.10
2017-04-19T02:13:17.685Z,85.80
2017-04-19T02:14:15.929Z,86.10
2017-04-19T02:15:14.143Z,85.80
2017-04-19T02:16:12.328Z,86.60
2017-04-19T02:17:10.523Z,86.50
2017-04-19T02:18:08.731Z,86.00
2017-04-19T02:19:07.191Z,85.80
2017-04-19T02:20:05.422Z,85.60
2017-04-19T02:21:03.609Z,85.40
2017-04-19T02:22:01.878Z,85.80
2017-04-19T02:23:00.072Z,85.70
2017-04-19T02:23:58.259Z,85.30
2017-04-19T02:24:57.011Z,85.60
2017-04-19T02:25:55.230Z,85.90
2017-04-19T02:26:53.439Z,86.00
2017-04-19T02:27:51.712Z,86.40
2017-04-19T02:28:49.954Z,86.10
2017-04-19T02:29:48.143Z,86.00
2017-04-19T02:30:46.380Z,86.10
2017-04-19T02:31:44.591Z,86.40
2017-04-19T02:32:42.783Z,86.30
2017-04-19T02:33:40.983Z,86.40
2017-04-19T02:34:39.272Z,86.30
2017-04-19T02:35:37.481Z,86.50
2017-04-19T02:36:36.409Z,86.10
2017-04-19T02:37:34.619Z,86.30
2017-04-19T02:38:32.850Z,86.40
2017-04-19T02:39:31.063Z,86.90
2017-04-19T02:40:29.579Z,86.90
2017-04-19T02:41:27.779Z,86.70
2017-04-19T02:42:26.015Z,87.10
2017-04-19T02:43:24.997Z,87.00
2017-04-19T02:44:24.179Z,87.00
2017-04-19T02:45:22.442Z,86.80
2017-04-19T02:46:20.691Z,87.40
2017-04-19T02:47:18.898Z,87.60
2017-04-19T02:48:17.452Z,87.10
2017-04-19T02:49:15.704Z,86.90
2017-04-19T02:50:13.952Z,86.80
2017-04-19T02:51:12.154Z,86.60
2017-04-19T02:52:11.105Z,86.60
2017-04-19T02:53:09.328Z,86.50
2017-04-19T02:54:07.531Z,86.80
2017-04-19T02:55:06.063Z,87.20
2017-04-19T02:56:04.272Z,86.80
2017-04-19T02:57:02.470Z,87.10
2017-04-19T02:58:00.675Z,87.30
2017-04-19T02:58:58.973Z,86.50
2017-04-19T02:59:57.307Z,86.50
2017-04-19T03:00:55.543Z,86.80
2017-04-19T03:01:53.760Z,86.90
2017-04-19T03:02:51.972Z,86.90
2017-04-19T03:03:50.171Z,87.00
2017-04-19T03:04:49.128Z,87.20
2017-04-19T03:05:47.578Z,87.10
2017-04-19T03:06:45.873Z,87.20
2017-04-19T03:07:44.147Z,87.00
2017-04-19T03:08:43.395Z,87.30
2017-04-19T03:09:41.604Z,87.90
2017-04-19T03:10:39.824Z,87.60
2017-04-19T03:11:38.032Z,87.40
2017-04-19T03:12:36.267Z,87.50
2017-04-19T03:13:34.529Z,87.70
2017-04-19T03:14:32.740Z,87.80
2017-04-19T03:15:31.688Z,88.10
2017-04-19T03:16:29.903Z,88.10
2017-04-19T03:17:28.186Z,87.80
2017-04-19T03:18:26.427Z,87.80
2017-04-19T03:19:24.631Z,89.00
2017-04-19T03:20:23.827Z,88.20
2017-04-19T03:21:22.408Z,88.50
2017-04-19T03:22:20.616Z,88.70
2017-04-19T03:23:18.823Z,88.20
2017-04-19T03:24:17.056Z,88.20
2017-04-19T03:25:15.262Z,88.30
2017-04-19T03:26:13.471Z,88.30
2017-04-19T03:27:12.719Z,88.50
2017-04-19T03:28:11.174Z,88.60
2017-04-19T03:29:09.375Z,88.30
2017-04-19T03:30:07.610Z,88.10
2017-04-19T03:31:05.848Z,88.20
2017-04-19T03:32:04.319Z,88.40
2017-04-19T03:33:02.547Z,88.50
2017-04-19T03:34:00.751Z,88.30
2017-04-19T03:34:59.103Z,88.60
2017-04-19T03:35:57.659Z,88.40
2017-04-19T03:36:55.880Z,88.60
2017-04-19T03:37:54.112Z,88.60
2017-04-19T03:38:52.316Z,89.00
2017-04-19T03:39:50.504Z,88.70
2017-04-19T03:40:48.698Z,89.10
2017-04-19T03:41:46.952Z,88.70
2017-04-19T03:42:45.901Z,88.90
2017-04-19T03:43:44.085Z,88.60
2017-04-19T03:44:42.280Z,88.90
2017-04-19T03:45:40.467Z,89.30
2017-04-19T03:46:38.654Z,89.10
2017-04-19T03:47:36.879Z,89.20
2017-04-19T03:48:35.074Z,88.90
2017-04-19T03:49:33.592Z,88.70
2017-04-19T03:50:31.789Z,88.90
2017-04-19T03:51:30.304Z,89.20
2017-04-19T03:52:28.490Z,89.20
2017-04-19T03:53:26.703Z,89.70
2017-04-19T03:54:24.939Z,89.90
2017-04-19T03:55:23.131Z,89.80
2017-04-19T03:56:21.359Z,89.70
2017-04-19T03:57:19.804Z,89.60
2017-04-19T03:58:18.727Z,90.00
2017-04-19T03:59:16.956Z,90.10
2017-04-19T04:00:15.155Z,89.90
2017-04-19T04:01:13.365Z,90.00
2017-04-19T04:02:11.568Z,90.00
2017-04-19T04:03:09.758Z,89.90
2017-04-19T04:04:07.960Z,90.00
2017-04-19T04:05:06.922Z,90.00
2017-04-19T04:06:05.111Z,90.00
2017-04-19T04:07:03.320Z,89.70
2017-04-19T04:08:02.247Z,89.90
2017-04-19T04:09:00.443Z,89.70
2017-04-19T04:09:58.644Z,89.70
2017-04-19T04:10:56.867Z,89.90
2017-04-19T04:11:55.063Z,89.80
2017-04-19T04:12:54.026Z,89.80
2017-04-19T04:13:52.252Z,89.50
2017-04-19T04:14:50.472Z,89.70
2017-04-19T04:15:49.428Z,90.00
2017-04-19T04:16:49.431Z,89.90
2017-04-19T04:17:47.618Z,89.50
2017-04-19T04:18:45.816Z,89.80
2017-04-19T04:19:44.042Z,89.90
2017-04-19T04:20:42.230Z,89.70
2017-04-19T04:21:40.418Z,89.60
2017-04-19T04:22:38.647Z,89.40
2017-04-19T04:23:36.840Z,89.70
2017-04-19T04:24:35.045Z,89.70
2017-04-19T04:25:33.258Z,89.50
2017-04-19T04:26:31.463Z,89.80
2017-04-19T04:27:29.664Z,90.00
2017-04-19T04:28:28.148Z,90.00
2017-04-19T04:29:27.080Z,90.00
2017-04-19T04:30:25.397Z,90.00
2017-04-19T04:31:24.323Z,89.90
2017-04-19T04:32:22.529Z,89.80
2017-04-19T04:33:20.710Z,89.90
2017-04-19T04:34:19.967Z,89.80
2017-04-19T04:35:18.161Z,89.90
2017-04-19T04:36:16.422Z,89.40
2017-04-19T04:37:14.866Z,89.80
2017-04-19T04:38:13.052Z,90.00
2017-04-19T04:39:11.294Z,89.80
2017-04-19T04:40:10.227Z,90.00
2017-04-19T04:41:08.441Z,90.10
2017-04-19T04:42:06.790Z,90.10
2017-04-19T04:43:05.055Z,90.10
2017-04-19T04:44:03.260Z,90.00
2017-04-19T04:45:01.471Z,90.00
2017-04-19T04:45:59.708Z,90.00
2017-04-19T04:46:58.146Z,89.80
2017-04-19T04:47:56.370Z,89.70
2017-04-19T04:48:54.883Z,89.60
2017-04-19T04:49:53.363Z,90.00
2017-04-19T04:50:52.302Z,89.80
2017-04-19T04:51:50.853Z,90.10
2017-04-19T04:52:49.064Z,90.20
2017-04-19T04:53:47.587Z,90.50
2017-04-19T04:54:45.809Z,90.10
2017-04-19T04:55:44.028Z,90.00
2017-04-19T04:56:42.971Z,88.80
2017-04-19T04:57:41.211Z,87.30
2017-04-19T04:58:39.819Z,86.00
2017-04-19T04:59:38.027Z,84.70
2017-04-19T05:00:36.231Z,83.10
2017-04-19T05:01:34.462Z,81.10
2017-04-19T05:02:32.655Z,80.70
2017-04-19T05:03:30.883Z,79.70
2017-04-19T05:04:29.098Z,77.60
2017-04-19T05:05:27.292Z,76.70
2017-04-19T05:06:26.333Z,76.20
2017-04-19T05:07:24.799Z,74.90
2017-04-19T05:08:23.008Z,74.30
2017-04-19T05:09:21.236Z,72.00
2017-04-19T05:10:19.436Z,72.20
2017-04-19T05:11:17.630Z,71.50
2017-04-19T05:12:15.836Z,70.20
2017-04-19T05:13:14.041Z,70.00
2017-04-19T05:14:12.979Z,68.60
2017-04-19T05:15:11.211Z,67.60
2017-04-19T05:16:09.410Z,67.00
2017-04-19T05:17:07.632Z,66.00
2017-04-19T05:18:06.128Z,65.30
2017-04-19T05:19:04.891Z,64.10
2017-04-19T05:20:03.096Z,63.40
2017-04-19T05:21:01.319Z,62.90
2017-04-19T05:21:59.525Z,61.40
2017-04-19T05:22:57.724Z,60.50
2017-04-19T05:23:55.951Z,60.90
2017-04-19T05:24:54.160Z,59.60
2017-04-19T05:25:52.365Z,59.20
2017-04-19T05:26:50.602Z,58.90
2017-04-19T05:27:48.795Z,58.10
2017-04-19T05:28:47.037Z,57.70
2017-04-19T05:29:45.563Z,57.80
2017-04-19T05:30:44.026Z,57.60
2017-04-19T05:31:42.233Z,56.70
2017-04-19T05:32:41.204Z,56.90
2017-04-19T05:33:39.406Z,56.80
2017-04-19T05:34:37.606Z,56.30
2017-04-19T05:35:35.855Z,56.40
2017-04-19T05:36:34.064Z,55.90
2017-04-19T05:37:32.264Z,55.20
2017-04-19T05:38:30.495Z,54.80
2017-04-19T05:39:29.451Z,54.60
2017-04-19T05:40:27.644Z,53.60
2017-04-19T05:41:26.034Z,53.30
2017-04-19T05:42:24.273Z,53.50
2017-04-19T05:43:22.532Z,53.30
2017-04-19T05:44:20.760Z,52.70
2017-04-19T05:45:20.378Z,52.90
2017-04-19T05:46:18.562Z,53.50
2017-04-19T05:47:16.768Z,53.70
2017-04-19T05:48:14.999Z,53.10
2017-04-19T05:49:13.214Z,53.10
2017-04-19T05:50:11.646Z,52.70
2017-04-19T05:51:10.079Z,52.40
2017-04-19T05:52:08.338Z,53.00
2017-04-19T05:53:06.690Z,53.70
2017-04-19T05:54:04.899Z,52.90
2017-04-19T05:55:04.015Z,52.80
2017-04-19T05:56:02.974Z,52.70
2017-04-19T05:57:01.420Z,52.40
2017-04-19T05:57:59.606Z,51.90
2017-04-19T05:58:58.055Z,51.80
2017-04-19T05:59:56.311Z,51.50
2017-04-19T06:00:54.774Z,51.50
2017-04-19T06:01:53.011Z,51.90
2017-04-19T06:02:51.204Z,51.60
2017-04-19T06:03:49.393Z,51.10
2017-04-19T06:04:47.601Z,49.90
2017-04-19T06:05:45.791Z,50.00
2017-04-19T06:06:44.063Z,50.60
2017-04-19T06:07:42.388Z,51.40
2017-04-19T06:08:40.608Z,51.20
2017-04-19T06:09:39.092Z,51.00
2017-04-19T06:10:37.314Z,51.30
2017-04-19T06:11:35.543Z,51.50
2017-04-19T06:12:33.984Z,50.80
2017-04-19T06:13:32.227Z,50.90
2017-04-19T06:14:30.771Z,50.90
2017-04-19T06:15:29.695Z,51.00
2017-04-19T06:16:27.888Z,50.80
2017-04-19T06:17:26.111Z,49.90
2017-04-19T06:18:24.537Z,51.00
2017-04-19T06:19:22.781Z,50.50
2017-04-19T06:20:20.955Z,50.10
2017-04-19T06:21:19.187Z,50.10
2017-04-19T06:22:17.373Z,49.20
2017-04-19T06:23:15.575Z,48.70
2017-04-19T06:24:13.773Z,48.90
2017-04-19T06:25:12.320Z,48.90
2017-04-19T06:26:10.512Z,49.20
2017-04-19T06:27:08.704Z,49.10
2017-04-19T06:28:06.912Z,49.30
2017-04-19T06:29:05.108Z,49.00
2017-04-19T06:30:03.291Z,48.60
2017-04-19T06:31:02.735Z,48.40
2017-04-19T06:32:01.656Z,49.30
2017-04-19T06:32:59.839Z,49.50
2017-04-19T06:33:58.029Z,49.80
2017-04-19T06:34:56.217Z,49.30
2017-04-19T06:35:54.403Z,48.50
2017-04-19T06:36:52.634Z,47.30
2017-04-19T06:37:51.563Z,46.80
2017-04-19T06:38:49.751Z,46.60
2017-04-19T06:39:47.992Z,45.30
2017-04-19T06:40:46.194Z,44.30
2017-04-19T06:41:44.403Z,44.10
2017-04-19T06:42:42.989Z,44.00
2017-04-19T06:43:41.175Z,44.20
2017-04-19T06:44:39.371Z,44.30
2017-04-19T06:45:37.555Z,44.10
2017-04-19T06:46:35.745Z,43.80
2017-04-19T06:47:33.950Z,43.20
2017-04-19T06:48:32.193Z,43.00
2017-04-19T06:49:30.375Z,43.90
2017-04-19T06:50:28.571Z,43.60
2017-04-19T06:51:26.823Z,44.00
2017-04-19T06:52:25.012Z,43.40
2017-04-19T06:53:23.205Z,43.40
2017-04-19T06:54:21.446Z,43.20
2017-04-19T06:55:19.634Z,42.90
2017-04-19T06:56:17.829Z,42.40
2017-04-19T06:57:16.025Z,42.50
2017-04-19T06:58:15.196Z,42.20
2017-04-19T06:59:13.393Z,42.60
2017-04-19T07:00:11.912Z,42.90
2017-04-19T07:01:10.384Z,43.20
2017-04-19T07:02:08.575Z,43.40
2017-04-19T07:03:08.747Z,43.30
2017-04-19T07:04:07.420Z,42.80
2017-04-19T07:05:06.319Z,42.50
2017-04-19T07:06:04.907Z,42.90
2017-04-19T07:07:03.164Z,43.20
2017-04-19T07:08:01.397Z,43.00
2017-04-19T07:08:59.604Z,41.80
2017-04-19T07:09:57.801Z,41.60
2017-04-19T07:10:56.738Z,42.30
2017-04-19T07:11:54.963Z,42.60
2017-04-19T07:12:53.160Z,41.60
2017-04-19T07:13:51.365Z,42.00
2017-04-19T07:14:50.292Z,41.00
2017-04-19T07:15:48.480Z,41.40
2017-04-19T07:16:46.676Z,39.80
2017-04-19T07:17:45.639Z,40.40
2017-04-19T07:18:44.094Z,40.00
2017-04-19T07:19:42.303Z,40.50
2017-04-19T07:20:41.266Z,41.40
2017-04-19T07:21:39.464Z,43.50
2017-04-19T07:22:37.703Z,43.40
2017-04-19T07:23:36.155Z,43.90
2017-04-19T07:24:34.623Z,43.40
2017-04-19T07:25:32.819Z,42.70
2017-04-19T07:26:31.739Z,40.90
2017-04-19T07:27:29.936Z,41.40
2017-04-19T07:28:28.130Z,41.00
2017-04-19T07:29:27.083Z,40.90
2017-04-19T07:30:25.275Z,39.10
2017-04-19T07:31:23.607Z,37.50
2017-04-19T07:32:21.827Z,38.50
2017-04-19T07:33:20.027Z,39.50
2017-04-19T07:34:18.242Z,40.00
2017-04-19T07:35:16.488Z,40.00
2017-04-19T07:36:14.685Z,39.80
2017-04-19T07:37:12.871Z,39.40
2017-04-19T07:38:11.064Z,38.50
2017-04-19T07:39:09.291Z,36.70
2017-04-19T07:40:07.503Z,37.60
2017-04-19T07:41:06.530Z,37.30
2017-04-19T07:42:04.743Z,36.90
2017-04-19T07:43:03.208Z,37.00
2017-04-19T07:44:01.435Z,35.80
2017-04-19T07:44:59.644Z,36.30
2017-04-19T07:45:58.118Z,37.90
2017-04-19T07:46:56.327Z,37.60
2017-04-19T07:47:54.536Z,37.50
2017-04-19T07:48:52.747Z,35.70
2017-04-19T07:49:51.722Z,35.30
2017-04-19T07:50:49.928Z,34.20
2017-04-19T07:51:48.176Z,34.60
2017-04-19T07:52:46.448Z,35.20
2017-04-19T07:53:44.660Z,35.30
2017-04-19T07:54:43.142Z,35.40
2017-04-19T07:55:41.374Z,34.90
2017-04-19T07:56:39.812Z,36.00
2017-04-19T07:57:38.367Z,36.00
2017-04-19T07:58:36.548Z,35.10
2017-04-19T07:59:35.058Z,35.70
2017-04-19T08:00:33.247Z,35.20
2017-04-19T08:01:31.472Z,35.60
2017-04-19T08:02:29.662Z,35.80
2017-04-19T08:03:27.864Z,37.90
2017-04-19T08:04:26.049Z,38.40
2017-04-19T08:05:24.231Z,36.90
2017-04-19T08:06:22.428Z,36.90
2017-04-19T08:07:20.916Z,39.30
2017-04-19T08:08:19.378Z,40.30
2017-04-19T08:09:17.573Z,40.70
2017-04-19T08:10:16.504Z,40.50
2017-04-19T08:11:15.387Z,37.30
2017-04-19T08:12:13.584Z,36.20
2017-04-19T08:13:12.196Z,35.80
2017-04-19T08:14:10.396Z,36.30
2017-04-19T08:15:09.118Z,36.10
2017-04-19T08:16:07.591Z,36.40
2017-04-19T08:17:06.784Z,36.60
2017-04-19T08:18:05.719Z,36.20
2017-04-19T08:19:03.931Z,35.80
2017-04-19T08:20:02.143Z,37.30
2017-04-19T08:21:00.391Z,38.80
2017-04-19T08:21:58.584Z,39.10
2017-04-19T08:22:56.772Z,38.80
2017-04-19T08:23:55.524Z,38.70
2017-04-19T08:24:53.780Z,39.00
2017-04-19T08:25:51.966Z,40.50
2017-04-19T08:26:50.180Z,41.00
2017-04-19T08:27:48.377Z,41.30
2017-04-19T08:28:46.559Z,42.60
2017-04-19T08:29:44.748Z,42.90
2017-04-19T08:30:43.721Z,43.00
2017-04-19T08:31:41.916Z,42.40
2017-04-19T08:32:40.139Z,41.40
2017-04-19T08:33:38.368Z,40.60
2017-04-19T08:34:37.075Z,39.40
2017-04-19T08:35:35.372Z,39.80
2017-04-19T08:36:33.599Z,38.30
2017-04-19T08:37:31.796Z,36.80
2017-04-19T08:38:29.994Z,35.10
2017-04-19T08:39:28.259Z,33.60
2017-04-19T08:40:26.465Z,32.60
2017-04-19T08:41:24.680Z,30.30
2017-04-19T08:42:22.905Z,31.90
2017-04-19T08:43:21.100Z,31.60
2017-04-19T08:44:19.299Z,32.40
2017-04-19T08:45:17.500Z,31.20
2017-04-19T08:47:32.099Z,30.90
2017-04-19T08:48:30.771Z,29.90
2017-04-19T08:49:28.996Z,29.10
2017-04-19T08:50:27.200Z,30.60
2017-04-19T08:51:25.641Z,34.40
2017-04-19T08:52:23.946Z,36.00
2017-04-19T08:53:22.217Z,37.70
2017-04-19T08:54:20.415Z,37.50
2017-04-19T08:55:18.622Z,36.90
2017-04-19T08:56:17.577Z,36.50
2017-04-19T08:57:15.783Z,34.80
2017-04-19T08:58:13.980Z,35.00
2017-04-19T08:59:12.209Z,33.60
2017-04-19T09:00:10.412Z,34.70
2017-04-19T09:01:09.620Z,35.40
2017-04-19T09:02:07.838Z,36.90
2017-04-19T09:03:05.264Z,36.90
2017-04-19T09:04:02.688Z,37.00
2017-04-19T09:05:00.139Z,36.50
2017-04-19T09:05:58.337Z,36.60
2017-04-19T09:06:55.786Z,36.60
2017-04-19T09:07:53.988Z,36.00
2017-04-19T09:08:52.175Z,36.60
2017-04-19T09:09:50.408Z,36.20
2017-04-19T09:10:49.599Z,36.40
2017-04-19T09:11:48.532Z,37.10
2017-04-19T09:12:47.013Z,37.90
2017-04-19T09:13:45.225Z,38.00
2017-04-19T09:14:43.435Z,38.50
2017-04-19T09:15:41.619Z,39.40
2017-04-19T09:16:40.131Z,38.40
2017-04-19T09:17:38.540Z,37.00
2017-04-19T09:18:36.775Z,37.30
2017-04-19T09:19:35.663Z,34.50
2017-04-19T09:20:34.100Z,33.30
2017-04-19T09:21:32.310Z,31.40
2017-04-19T09:22:30.534Z,30.40
2017-04-19T09:23:28.762Z,31.40
2017-04-19T09:24:26.715Z,31.40
2017-04-19T09:25:25.671Z,30.60
2017-04-19T09:26:23.882Z,32.40
2017-04-19T09:27:21.308Z,32.30
2017-04-19T09:28:20.277Z,33.90
2017-04-19T09:29:18.583Z,33.10
2017-04-19T09:30:16.019Z,33.10
2017-04-19T09:31:14.223Z,32.90
2017-04-19T09:32:12.444Z,32.90
2017-04-19T09:33:10.673Z,32.40
2017-04-19T09:34:08.928Z,30.00
2017-04-19T09:35:07.356Z,29.70
2017-04-19T09:36:05.570Z,30.10
2017-04-19T09:37:03.012Z,30.10
2017-04-19T09:38:01.253Z,29.40
2017-04-19T09:38:59.512Z,28.90
2017-04-19T09:39:57.807Z,28.60
2017-04-19T09:40:56.081Z,28.10
2017-04-19T09:41:54.331Z,28.20
2017-04-19T09:42:52.554Z,27.80
2017-04-19T09:43:50.806Z,27.90
2017-04-19T09:44:49.048Z,26.90
2017-04-19T09:45:47.314Z,26.60
2017-04-19T09:46:45.552Z,25.30
2017-04-19T09:47:44.196Z,26.10
2017-04-19T09:48:42.547Z,26.30
2017-04-19T09:49:41.451Z,26.20
2017-04-19T09:50:39.696Z,26.70
2017-04-19T09:51:37.960Z,25.30
2017-04-19T09:52:36.183Z,26.30
2017-04-19T09:53:34.418Z,25.90
2017-04-19T09:54:32.655Z,27.10
2017-04-19T09:55:30.103Z,27.10
2017-04-19T09:56:28.332Z,27.10
2017-04-19T09:57:26.623Z,28.60
2017-04-19T09:58:24.852Z,28.70
2017-04-19T09:59:23.089Z,27.90
2017-04-19T10:00:21.324Z,27.50
2017-04-19T10:01:19.847Z,28.60
2017-04-19T10:02:18.079Z,28.90
2017-04-19T10:03:15.593Z,28.80
2017-04-19T10:04:13.823Z,29.00
2017-04-19T10:05:12.046Z,30.10
2017-04-19T10:06:10.500Z,30.90
2017-04-19T10:07:08.771Z,30.30
2017-04-19T10:09:05.885Z,28.70
2017-04-19T10:10:04.107Z,29.40
2017-04-19T10:11:01.571Z,29.50
2017-04-19T10:11:59.794Z,29.40
2017-04-19T10:12:57.506Z,29.40
2017-04-19T10:13:55.720Z,29.00
2017-04-19T10:14:53.994Z,29.10
2017-04-19T10:15:51.686Z,29.00
2017-04-19T10:16:49.952Z,29.20
2017-04-19T10:17:48.259Z,29.30
2017-04-19T10:18:46.492Z,28.60
2017-04-19T10:19:44.714Z,29.40
2017-04-19T10:20:42.978Z,28.80
2017-04-19T10:21:42.197Z,29.40
2017-04-19T10:22:39.698Z,29.40
2017-04-19T10:23:37.933Z,28.40
2017-04-19T10:24:36.156Z,27.50
2017-04-19T10:25:35.141Z,27.20
2017-04-19T10:26:32.634Z,27.10
2017-04-19T10:27:30.932Z,26.00
2017-04-19T10:28:29.164Z,26.50
2017-04-19T10:29:27.395Z,27.30
2017-04-19T10:30:26.637Z,28.60
2017-04-19T10:31:24.871Z,29.40
2017-04-19T10:32:23.139Z,30.00
2017-04-19T10:33:21.407Z,30.30
2017-04-19T10:34:19.625Z,30.40
2017-04-19T10:35:17.960Z,30.80
2017-04-19T10:36:16.927Z,30.80
2017-04-19T10:37:15.153Z,30.90
2017-04-19T10:38:13.436Z,30.40
2017-04-19T10:39:11.191Z,30.30
2017-04-19T10:40:10.168Z,29.30
2017-04-19T10:41:08.406Z,29.80
2017-04-19T10:42:05.886Z,29.80
2017-04-19T10:43:04.855Z,28.60
2017-04-19T10:44:03.104Z,28.40
2017-04-19T10:45:01.569Z,28.20
2017-04-19T10:45:59.891Z,27.10
2017-04-19T10:46:58.407Z,28.10
2017-04-19T10:47:56.860Z,28.80
2017-04-19T10:48:55.124Z,29.80
2017-04-19T10:49:53.372Z,30.00
2017-04-19T10:50:51.614Z,30.70
2017-04-19T10:51:50.119Z,31.40
2017-04-19T10:52:48.375Z,31.90
2017-04-19T10:53:46.618Z,32.00
2017-04-19T10:54:44.847Z,31.70
2017-04-19T10:55:43.097Z,31.70
2017-04-19T10:56:41.545Z,31.70
2017-04-19T10:57:39.788Z,30.90
2017-04-19T10:58:37.259Z,30.90
2017-04-19T10:59:35.498Z,31.30
2017-04-19T11:00:34.544Z,33.20
2017-04-19T11:01:32.824Z,34.30
2017-04-19T11:02:31.076Z,35.20
2017-04-19T11:03:29.318Z,35.40
2017-04-19T11:04:27.545Z,36.00
2017-04-19T11:05:24.999Z,35.90
2017-04-19T11:06:23.231Z,34.70
2017-04-19T11:07:21.508Z,35.40
2017-04-19T11:08:18.975Z,35.30
2017-04-19T11:09:17.968Z,34.20
2017-04-19T11:10:16.206Z,33.80
2017-04-19T11:11:14.460Z,34.00
2017-04-19T11:12:12.693Z,33.90
2017-04-19T11:13:11.024Z,33.70
2017-04-19T11:14:09.252Z,33.70
2017-04-19T11:15:07.479Z,34.70
2017-04-19T11:16:05.724Z,34.50
2017-04-19T11:17:04.710Z,34.30
2017-04-19T11:18:02.429Z,34.30
2017-04-19T11:19:00.938Z,34.80
2017-04-19T11:19:59.172Z,33.50
2017-04-19T11:20:56.648Z,33.50
2017-04-19T11:21:54.911Z,33.50
2017-04-19T11:22:52.424Z,33.40
2017-04-19T11:23:50.652Z,34.50
2017-04-19T11:24:48.915Z,34.80
2017-04-19T11:25:47.343Z,35.50
2017-04-19T11:26:44.827Z,35.50
2017-04-19T11:27:43.076Z,35.00
2017-04-19T11:28:40.588Z,35.00
2017-04-19T11:29:38.808Z,35.00
2017-04-19T11:30:37.084Z,33.40
2017-04-19T11:31:35.325Z,33.60
2017-04-19T11:32:34.301Z,34.50
2017-04-19T11:33:32.747Z,34.60
2017-04-19T11:34:30.971Z,34.50
2017-04-19T11:35:29.194Z,34.80
2017-04-19T11:36:27.436Z,35.10
2017-04-19T11:37:25.883Z,36.20
2017-04-19T11:38:24.119Z,35.70
2017-04-19T11:39:22.348Z,34.80
2017-04-19T11:40:20.566Z,34.30
2017-04-19T11:41:18.784Z,33.00
2017-04-19T11:42:16.266Z,33.00
2017-04-19T11:43:14.780Z,33.20
2017-04-19T11:44:13.007Z,32.90
2017-04-19T11:45:11.455Z,32.40
2017-04-19T11:46:10.415Z,32.30
2017-04-19T11:47:07.894Z,32.30
2017-04-19T11:48:05.444Z,33.00
2017-04-19T11:49:04.400Z,34.20
2017-04-19T11:50:02.656Z,33.80
2017-04-19T11:51:00.924Z,33.00
2017-04-19T11:51:59.459Z,33.30
2017-04-19T11:52:57.846Z,34.00
2017-04-19T11:53:56.086Z,34.20
2017-04-19T11:54:54.306Z,33.80
2017-04-19T11:55:52.517Z,33.90
2017-04-19T11:56:50.723Z,32.30
2017-04-19T11:57:48.938Z,31.10
2017-04-19T11:58:47.163Z,31.40
2017-04-19T11:59:45.438Z,31.30
2017-04-19T12:00:42.888Z,31.30
2017-04-19T12:01:41.093Z,31.40
2017-04-19T12:02:39.340Z,31.20
2017-04-19T12:03:37.574Z,32.30
2017-04-19T12:04:35.771Z,32.20
2017-04-19T12:05:34.348Z,32.20
2017-04-19T12:06:32.550Z,32.00
2017-04-19T12:07:30.763Z,32.00
2017-04-19T12:08:28.980Z,32.20
2017-04-19T12:09:27.211Z,32.40
2017-04-19T12:10:25.432Z,33.30
2017-04-19T12:11:23.678Z,34.10
2017-04-19T12:12:22.636Z,34.70
2017-04-19T12:13:20.911Z,35.10
2017-04-19T12:14:19.134Z,35.90
2017-04-19T12:15:18.347Z,37.60
2017-04-19T12:16:16.580Z,38.60
2017-04-19T12:17:15.088Z,38.50
2017-04-19T12:18:13.320Z,38.10
2017-04-19T12:19:12.161Z,38.10
2017-04-19T12:20:10.368Z,39.00
2017-04-19T12:21:08.816Z,38.40
2017-04-19T12:22:07.019Z,39.00
2017-04-19T12:23:05.999Z,38.80
2017-04-19T12:24:03.441Z,38.80
2017-04-19T12:25:01.762Z,38.90
2017-04-19T12:25:59.963Z,38.00
2017-04-19T12:26:58.179Z,36.00
2017-04-19T12:27:56.625Z,35.50
2017-04-19T12:28:55.655Z,36.70
2017-04-19T12:29:53.859Z,37.40
2017-04-19T12:30:51.328Z,37.40
2017-04-19T12:31:49.530Z,35.40
2017-04-19T12:32:47.739Z,34.40
2017-04-19T12:33:45.963Z,33.60
2017-04-19T12:34:44.304Z,32.90